Terminal Aerodrome Forecast
Issued by NWS

Home | Current Version | Previous Version | Text Only | Print | Product List | Glossary On
Versions: 1 2 3 4 5 6 7 8 9 10 11 12 13 14 15 16 17 18 19 20 21 22 23 24 25 26 27 28 29 30 31 32
421
FTUS45 KSLC 240125 AAA
TAFEVW
TAF AMD
KEVW 240125Z 2401/2424 31011KT P6SM VCSH SCT050 BKN070
     FM240400 22009KT P6SM SCT070 BKN120
     FM241600 24013G25KT P6SM -SHRA BKN050
     FM241900 25015G25KT 5SM RA SCT015 BKN030=

USA.gov is the U.S. government's official web portal to all federal, state and local government web resources and services.